createdAt,value
2022-10-22T00:00:56.862Z,91.37
2022-10-22T00:03:26.040Z,91.19
2022-10-22T00:05:54.049Z,90.92
2022-10-22T00:08:21.983Z,91.19
2022-10-22T00:10:49.860Z,91.37
2022-10-22T00:13:17.911Z,90.91
2022-10-22T00:15:45.657Z,90.94
2022-10-22T00:18:13.495Z,91.17
2022-10-22T00:20:43.345Z,91.11
2022-10-22T00:23:11.113Z,91.40
2022-10-22T00:25:38.971Z,91.47
2022-10-22T00:28:06.861Z,91.16
2022-10-22T00:30:34.882Z,91.24
2022-10-22T00:33:02.587Z,91.16
2022-10-22T00:35:30.444Z,91.23
2022-10-22T00:37:59.575Z,91.21
2022-10-22T00:40:27.557Z,90.94
2022-10-22T00:42:55.938Z,91.28
2022-10-22T00:45:25.669Z,91.52
2022-10-22T00:47:58.525Z,91.45
2022-10-22T00:50:31.056Z,91.19
2022-10-22T00:53:01.326Z,91.26
2022-10-22T00:55:30.657Z,91.14
2022-10-22T00:58:00.840Z,91.57
2022-10-22T01:00:29.132Z,91.29
2022-10-22T01:02:58.311Z,91.75
2022-10-22T01:05:29.879Z,91.48
2022-10-22T01:07:58.115Z,91.49
2022-10-22T01:10:39.873Z,91.37
2022-10-22T01:13:18.581Z,91.88
2022-10-22T01:15:54.845Z,91.45
2022-10-22T01:18:30.043Z,91.46
2022-10-22T01:21:07.984Z,91.47
2022-10-22T01:24:20.483Z,91.63
2022-10-22T01:27:14.271Z,91.38
2022-10-22T01:29:48.525Z,91.55
2022-10-22T01:32:19.004Z,91.72
2022-10-22T01:34:51.528Z,91.43
2022-10-22T01:37:22.826Z,91.50
2022-10-22T01:39:51.672Z,91.25
2022-10-22T01:42:19.585Z,91.68
2022-10-22T01:44:50.154Z,91.45
2022-10-22T01:47:27.438Z,91.91
2022-10-22T01:50:12.961Z,91.39
2022-10-22T01:52:53.547Z,91.84
2022-10-22T01:55:29.901Z,91.93
2022-10-22T01:58:06.996Z,91.53
2022-10-22T02:00:40.194Z,91.85
2022-10-22T02:03:17.451Z,91.93
2022-10-22T02:05:52.060Z,91.99
2022-10-22T02:08:23.213Z,91.91
2022-10-22T02:10:51.964Z,91.84
2022-10-22T02:13:25.971Z,91.72
2022-10-22T02:15:56.957Z,91.43
2022-10-22T02:18:29.075Z,91.67
2022-10-22T02:20:57.885Z,92.06
2022-10-22T02:23:25.795Z,91.62
2022-10-22T02:25:59.920Z,91.82
2022-10-22T02:28:37.116Z,91.63
2022-10-22T02:31:14.269Z,91.79
2022-10-22T02:33:46.944Z,92.01
2022-10-22T02:36:16.565Z,91.81
2022-10-22T02:38:45.393Z,91.80
2022-10-22T02:41:13.181Z,92.03
2022-10-22T02:43:43.076Z,91.52
2022-10-22T02:46:12.775Z,91.72
2022-10-22T02:48:40.552Z,92.01
2022-10-22T02:51:08.382Z,91.94
2022-10-22T02:53:36.629Z,91.87
2022-10-22T02:56:04.645Z,91.88
2022-10-22T02:58:32.709Z,91.82
2022-10-22T03:01:00.675Z,92.04
2022-10-22T03:03:29.808Z,92.10
2022-10-22T03:05:57.645Z,92.18
2022-10-22T03:08:25.527Z,92.14
2022-10-22T03:10:53.365Z,91.82
2022-10-22T03:13:21.177Z,91.74
2022-10-22T03:15:50.293Z,91.99
2022-10-22T03:18:18.628Z,92.08
2022-10-22T03:20:47.799Z,92.01
2022-10-22T03:23:18.716Z,91.99
2022-10-22T03:25:49.302Z,92.22
2022-10-22T03:28:19.635Z,91.80
2022-10-22T03:30:47.423Z,91.66
2022-10-22T03:33:15.240Z,92.11
2022-10-22T03:35:47.262Z,92.07
2022-10-22T03:38:17.112Z,92.01
2022-10-22T03:40:46.924Z,92.01
2022-10-22T03:43:14.835Z,91.84
2022-10-22T03:45:42.631Z,91.67
2022-10-22T03:48:10.447Z,92.13
2022-10-22T03:50:38.257Z,91.87
2022-10-22T03:53:07.171Z,92.17
2022-10-22T03:55:38.080Z,91.80
2022-10-22T03:58:05.910Z,91.70
2022-10-22T04:00:33.804Z,92.21
2022-10-22T04:03:01.539Z,92.03
2022-10-22T04:05:29.328Z,91.79
2022-10-22T04:07:57.152Z,91.78
2022-10-22T04:10:24.920Z,92.31
2022-10-22T04:12:54.370Z,92.19
2022-10-22T04:15:22.277Z,91.98
2022-10-22T04:17:50.005Z,92.29
2022-10-22T04:20:18.010Z,92.14
2022-10-22T04:22:45.830Z,92.18
2022-10-22T04:25:13.559Z,92.27
2022-10-22T04:27:41.531Z,92.17
2022-10-22T04:30:12.213Z,92.28
2022-10-22T04:32:39.984Z,92.02
2022-10-22T04:35:08.688Z,92.30
2022-10-22T04:37:36.572Z,92.25
2022-10-22T04:40:05.254Z,92.06
2022-10-22T04:42:33.243Z,91.90
2022-10-22T04:45:01.050Z,92.15
2022-10-22T04:47:30.172Z,91.84
2022-10-22T04:49:58.043Z,92.38
2022-10-22T04:52:25.751Z,91.96
2022-10-22T04:54:53.535Z,92.24
2022-10-22T04:57:21.289Z,92.12
2022-10-22T04:59:49.080Z,92.10
2022-10-22T05:02:16.927Z,92.22
2022-10-22T05:04:46.353Z,91.93
2022-10-22T05:07:14.152Z,92.42
2022-10-22T05:09:42.163Z,92.22
2022-10-22T05:12:10.028Z,92.06
2022-10-22T05:14:41.395Z,92.12
2022-10-22T05:17:11.768Z,92.27
2022-10-22T05:19:39.660Z,92.31
2022-10-22T05:22:08.776Z,92.27
2022-10-22T05:24:37.148Z,92.04
2022-10-22T05:27:05.066Z,92.01
2022-10-22T05:29:32.926Z,92.22
2022-10-22T05:32:00.679Z,92.26
2022-10-22T05:34:28.490Z,92.32
2022-10-22T05:36:56.219Z,92.42
2022-10-22T05:39:25.447Z,92.34
2022-10-22T05:41:53.903Z,92.41
2022-10-22T05:44:21.775Z,92.60
2022-10-22T05:46:49.582Z,92.14
2022-10-22T05:49:17.451Z,92.14
2022-10-22T05:51:45.355Z,92.04
2022-10-22T05:54:18.876Z,92.41
2022-10-22T05:56:48.078Z,92.42
2022-10-22T05:59:15.786Z,92.13
2022-10-22T06:01:43.698Z,92.07
2022-10-22T06:04:13.410Z,92.22
2022-10-22T06:06:43.839Z,92.58
2022-10-22T06:09:16.778Z,92.19
2022-10-22T06:11:44.899Z,92.45
2022-10-22T06:14:14.463Z,92.35
2022-10-22T06:16:43.287Z,92.54
2022-10-22T06:19:12.482Z,92.21
2022-10-22T06:21:40.647Z,92.15
2022-10-22T06:24:09.225Z,92.63
2022-10-22T06:26:37.107Z,92.28
2022-10-22T06:29:05.156Z,92.18
2022-10-22T06:31:36.835Z,92.20
2022-10-22T06:34:04.830Z,92.41
2022-10-22T06:36:32.777Z,92.53
2022-10-22T06:39:00.631Z,92.42
2022-10-22T06:41:28.919Z,92.21
2022-10-22T06:43:58.339Z,92.38
2022-10-22T06:46:27.002Z,92.35
2022-10-22T06:48:57.610Z,92.49
2022-10-22T06:51:26.173Z,92.09
2022-10-22T06:53:54.510Z,92.29
2022-10-22T06:56:24.314Z,92.24
2022-10-22T06:58:53.309Z,92.35
2022-10-22T07:01:22.848Z,92.40
2022-10-22T07:03:52.197Z,92.48
2022-10-22T07:06:22.454Z,92.30
2022-10-22T07:08:50.459Z,92.54
2022-10-22T07:11:20.419Z,92.47
2022-10-22T07:13:48.931Z,92.75
2022-10-22T07:16:17.785Z,92.21
2022-10-22T07:18:46.291Z,92.45
2022-10-22T07:21:16.577Z,92.80
2022-10-22T07:23:45.988Z,92.76
2022-10-22T07:26:16.682Z,92.82
2022-10-22T07:28:44.794Z,92.45
2022-10-22T07:31:14.342Z,92.47
2022-10-22T07:33:42.274Z,92.45
2022-10-22T07:36:17.362Z,92.67
2022-10-22T07:38:47.806Z,92.31
2022-10-22T07:41:16.736Z,92.68
2022-10-22T07:43:44.902Z,92.46
2022-10-22T07:46:12.715Z,92.64
2022-10-22T07:48:40.877Z,92.29
2022-10-22T07:51:08.977Z,92.47
2022-10-22T07:53:36.893Z,92.66
2022-10-22T07:56:06.706Z,92.65
2022-10-22T07:58:35.276Z,92.62
2022-10-22T08:01:05.647Z,92.55
2022-10-22T08:03:33.994Z,92.70
2022-10-22T08:06:02.251Z,92.40
2022-10-22T08:08:31.020Z,92.53
2022-10-22T08:11:02.094Z,92.59
2022-10-22T08:13:31.991Z,92.53
2022-10-22T08:16:01.258Z,92.62
2022-10-22T08:18:30.083Z,92.52
2022-10-22T08:20:58.445Z,92.52
2022-10-22T08:23:28.745Z,92.74
2022-10-22T08:25:57.618Z,92.70
2022-10-22T08:28:25.754Z,92.67
2022-10-22T08:30:54.913Z,92.66
2022-10-22T08:33:23.038Z,92.72
2022-10-22T08:35:51.895Z,92.73
2022-10-22T08:38:20.260Z,92.55
2022-10-22T08:40:54.230Z,92.54
2022-10-22T08:43:42.693Z,92.78
2022-10-22T08:46:32.228Z,92.84
2022-10-22T08:49:03.052Z,92.46
2022-10-22T08:51:36.322Z,92.72
2022-10-22T08:54:18.063Z,92.74
2022-10-22T08:56:48.988Z,92.62
2022-10-22T08:59:22.266Z,92.68
2022-10-22T09:01:54.604Z,92.80
2022-10-22T09:04:29.576Z,92.83
2022-10-22T09:06:59.873Z,92.75
2022-10-22T09:09:34.061Z,92.71
2022-10-22T09:12:03.578Z,92.71
2022-10-22T09:14:31.669Z,92.76
2022-10-22T09:17:17.359Z,92.75
2022-10-22T09:19:59.378Z,92.82
2022-10-22T09:22:38.477Z,92.86
2022-10-22T09:25:23.924Z,92.83
2022-10-22T09:27:58.701Z,92.90
2022-10-22T09:30:30.416Z,92.97
2022-10-22T09:33:04.082Z,92.89
2022-10-22T09:35:35.914Z,92.89
2022-10-22T09:38:09.715Z,92.93
2022-10-22T09:40:44.881Z,92.94
2022-10-22T09:43:15.247Z,92.87
2022-10-22T09:45:44.494Z,92.66
2022-10-22T09:48:21.502Z,92.87
2022-10-22T09:50:50.996Z,92.82
2022-10-22T09:53:21.022Z,92.85
2022-10-22T09:58:27.907Z,92.61
2022-10-22T10:00:58.075Z,92.89
2022-10-22T10:03:29.691Z,92.72
2022-10-22T10:06:03.051Z,92.81
2022-10-22T10:08:34.330Z,92.66
2022-10-22T10:11:07.151Z,92.67
2022-10-22T10:13:51.824Z,92.76
2022-10-22T10:16:42.568Z,92.81
2022-10-22T10:19:57.799Z,92.99
2022-10-22T10:22:49.551Z,92.51
2022-10-22T10:25:32.721Z,92.63
2022-10-22T10:28:18.256Z,92.32
2022-10-22T10:30:54.524Z,92.69
2022-10-22T10:33:46.531Z,92.79
2022-10-22T10:36:25.989Z,92.66
2022-10-22T10:39:01.105Z,92.61
2022-10-22T10:41:46.778Z,92.68
2022-10-22T10:44:31.641Z,92.65
2022-10-22T10:47:09.793Z,92.56
2022-10-22T10:49:38.282Z,92.53
2022-10-22T10:52:21.286Z,92.57
2022-10-22T10:55:04.485Z,92.72
2022-10-22T10:57:44.718Z,92.51
2022-10-22T11:00:17.077Z,92.58
2022-10-22T11:03:12.946Z,92.41
2022-10-22T11:05:45.101Z,92.33
2022-10-22T11:08:20.633Z,92.41
2022-10-22T11:10:52.874Z,92.47
2022-10-22T11:13:27.111Z,92.44
2022-10-22T11:16:01.935Z,92.23
2022-10-22T11:18:35.424Z,92.30
2022-10-22T11:21:12.417Z,92.42
2022-10-22T11:23:47.146Z,92.22
2022-10-22T11:26:30.367Z,92.37
2022-10-22T11:29:02.491Z,92.20
2022-10-22T11:31:33.173Z,92.24
2022-10-22T11:34:32.048Z,92.16
2022-10-22T11:36:58.418Z,92.15
2022-10-22T11:39:42.280Z,91.99
2022-10-22T11:42:13.909Z,92.24
2022-10-22T11:47:34.248Z,92.06
2022-10-22T11:50:19.763Z,91.92
2022-10-22T11:52:55.277Z,91.96
2022-10-22T11:55:47.883Z,91.87
2022-10-22T11:58:32.105Z,91.96
2022-10-22T12:01:19.726Z,91.82
2022-10-22T12:03:51.334Z,91.89
2022-10-22T12:06:23.052Z,91.75
2022-10-22T12:09:00.414Z,91.79
2022-10-22T12:11:38.325Z,91.57
2022-10-22T12:14:26.740Z,91.77
2022-10-22T12:16:58.788Z,91.65
2022-10-22T12:19:30.821Z,91.68
2022-10-22T12:22:01.210Z,91.61
2022-10-22T12:24:34.119Z,91.56
2022-10-22T12:27:03.383Z,91.57
2022-10-22T12:29:33.967Z,91.47
2022-10-22T12:32:05.113Z,91.45
2022-10-22T12:34:32.891Z,91.47
2022-10-22T12:37:00.739Z,91.44
2022-10-22T12:39:29.957Z,91.39
2022-10-22T12:41:57.755Z,91.33
2022-10-22T12:44:26.866Z,91.32
2022-10-22T12:46:57.064Z,91.14
2022-10-22T12:49:35.230Z,91.23
2022-10-22T12:52:07.733Z,91.28
2022-10-22T12:54:39.133Z,91.12
2022-10-22T12:57:07.156Z,90.93
2022-10-22T12:59:38.845Z,91.08
2022-10-22T13:02:18.527Z,90.94
2022-10-22T13:05:16.158Z,90.98
2022-10-22T13:07:47.823Z,90.87
2022-10-22T13:10:21.288Z,90.78
2022-10-22T13:12:55.459Z,90.72
2022-10-22T13:15:35.704Z,90.90
2022-10-22T13:18:05.872Z,90.81
2022-10-22T13:20:37.250Z,90.84
2022-10-22T13:23:06.384Z,90.77
2022-10-22T13:25:37.238Z,90.94
2022-10-22T13:28:21.907Z,90.64
2022-10-22T13:30:56.024Z,90.56
2022-10-22T13:33:27.263Z,90.61
2022-10-22T13:35:56.200Z,90.51
2022-10-22T13:38:26.454Z,90.50
2022-10-22T13:40:54.577Z,90.44
2022-10-22T13:43:23.278Z,90.45
2022-10-22T13:45:56.562Z,90.25
2022-10-22T13:48:26.466Z,90.17
2022-10-22T13:50:54.795Z,90.20
2022-10-22T13:53:25.296Z,90.20
2022-10-22T13:55:53.408Z,90.19
2022-10-22T13:58:24.465Z,90.06
2022-10-22T14:00:57.079Z,90.11
2022-10-22T14:03:29.321Z,89.97
2022-10-22T14:05:57.860Z,89.95
2022-10-22T14:08:26.714Z,90.06
2022-10-22T14:10:54.748Z,89.91
2022-10-22T14:13:22.899Z,90.04
2022-10-22T14:15:52.931Z,89.88
2022-10-22T14:18:27.380Z,89.88
2022-10-22T14:20:57.201Z,89.77
2022-10-22T14:23:27.977Z,89.93
2022-10-22T14:25:56.223Z,89.85
2022-10-22T14:28:24.141Z,89.89
2022-10-22T14:30:53.024Z,89.79
2022-10-22T14:33:28.787Z,89.82
2022-10-22T14:35:58.321Z,89.72
2022-10-22T14:38:26.221Z,89.55
2022-10-22T14:40:53.961Z,89.58
2022-10-22T14:43:24.985Z,89.58
2022-10-22T14:45:53.124Z,89.60
2022-10-22T14:48:22.464Z,89.52
2022-10-22T14:50:50.608Z,89.53
2022-10-22T14:53:18.495Z,89.39
2022-10-22T14:55:47.372Z,89.40
2022-10-22T14:58:15.726Z,89.53
2022-10-22T15:00:44.797Z,89.19
2022-10-22T15:03:12.802Z,89.22
2022-10-22T15:05:44.413Z,89.44
2022-10-22T15:08:13.890Z,89.29
2022-10-22T15:10:41.855Z,89.30
2022-10-22T15:13:09.758Z,89.21
2022-10-22T15:15:39.901Z,89.19
2022-10-22T15:18:08.288Z,89.04
2022-10-22T15:20:36.144Z,89.17
2022-10-22T15:23:05.374Z,89.16
2022-10-22T15:25:33.136Z,88.82
2022-10-22T15:28:09.192Z,89.18
2022-10-22T15:30:37.861Z,88.99
2022-10-22T15:33:06.526Z,88.99
2022-10-22T15:35:34.515Z,88.97
2022-10-22T15:38:02.224Z,88.93
2022-10-22T15:40:31.346Z,88.85
2022-10-22T15:42:59.163Z,89.02
2022-10-22T15:45:26.953Z,88.85
2022-10-22T15:47:54.766Z,88.93
2022-10-22T15:50:22.773Z,88.86
2022-10-22T15:52:50.790Z,88.66
2022-10-22T15:55:18.854Z,88.87
2022-10-22T15:57:54.783Z,88.73
2022-10-22T16:00:24.933Z,88.67
2022-10-22T16:02:54.912Z,88.66
2022-10-22T16:05:22.776Z,88.68
2022-10-22T16:07:51.414Z,88.64
2022-10-22T16:10:19.368Z,88.69
2022-10-22T16:12:51.411Z,88.62
2022-10-22T16:15:19.549Z,88.72
2022-10-22T16:17:47.315Z,88.58
2022-10-22T16:20:15.104Z,88.54
2022-10-22T16:22:43.336Z,88.54
2022-10-22T16:25:11.298Z,88.64
2022-10-22T16:27:39.254Z,88.46
2022-10-22T16:30:09.180Z,88.50
2022-10-22T16:32:36.998Z,88.49
2022-10-22T16:35:05.081Z,88.31
2022-10-22T16:37:32.847Z,88.47
2022-10-22T16:40:04.387Z,88.43
2022-10-22T16:42:36.132Z,88.41
2022-10-22T16:45:04.338Z,88.35
2022-10-22T16:47:33.523Z,88.44
2022-10-22T16:50:01.311Z,88.34
2022-10-22T16:52:29.400Z,88.46
2022-10-22T16:54:58.086Z,88.25
2022-10-22T16:57:25.949Z,88.22
2022-10-22T16:59:53.919Z,88.21
2022-10-22T17:02:21.888Z,88.28
2022-10-22T17:04:51.146Z,88.16
2022-10-22T17:07:18.920Z,87.97
2022-10-22T17:09:46.703Z,88.16
2022-10-22T17:12:14.689Z,88.29
2022-10-22T17:14:42.541Z,88.23
2022-10-22T17:17:10.293Z,88.23
2022-10-22T17:19:38.809Z,88.09
2022-10-22T17:22:08.024Z,88.12
2022-10-22T17:24:36.148Z,87.99
2022-10-22T17:29:37.110Z,88.18
2022-10-22T17:32:05.005Z,88.02
2022-10-22T17:34:33.515Z,88.10
2022-10-22T17:37:01.343Z,88.08
2022-10-22T17:39:30.510Z,88.17
2022-10-22T17:41:58.426Z,88.03
2022-10-22T17:44:26.185Z,88.19
2022-10-22T17:46:53.978Z,87.99
2022-10-22T17:49:21.943Z,87.97
2022-10-22T17:51:49.857Z,88.04
2022-10-22T17:54:17.733Z,88.05
2022-10-22T17:56:46.976Z,88.01
2022-10-22T17:59:17.047Z,88.01
2022-10-22T18:01:47.846Z,87.93
2022-10-22T18:04:17.905Z,87.94
2022-10-22T18:06:46.705Z,88.00
2022-10-22T18:09:18.420Z,88.04
2022-10-22T18:11:49.055Z,87.96
2022-10-22T18:14:18.710Z,88.13
2022-10-22T18:16:47.411Z,87.92
2022-10-22T18:19:16.879Z,88.12
2022-10-22T18:21:44.923Z,87.80
2022-10-22T18:24:15.064Z,88.15
2022-10-22T18:26:43.263Z,88.17
2022-10-22T18:29:15.459Z,87.75
2022-10-22T18:31:43.795Z,88.15
2022-10-22T18:34:11.941Z,87.95
2022-10-22T18:36:41.424Z,88.14
2022-10-22T18:39:09.383Z,87.77
2022-10-22T18:41:37.683Z,87.95
2022-10-22T18:44:07.904Z,87.71
2022-10-22T18:46:38.380Z,87.79
2022-10-22T18:49:08.026Z,87.87
2022-10-22T18:51:36.533Z,88.04
2022-10-22T18:54:18.276Z,87.74
2022-10-22T18:56:50.408Z,87.80
2022-10-22T18:59:19.614Z,87.74
2022-10-22T19:01:49.591Z,88.05
2022-10-22T19:04:17.432Z,87.95
2022-10-22T19:06:46.036Z,87.97
2022-10-22T19:09:14.808Z,87.84
2022-10-22T19:11:43.869Z,87.74
2022-10-22T19:14:11.853Z,88.27
2022-10-22T19:16:39.649Z,87.95
2022-10-22T19:19:09.229Z,87.78
2022-10-22T19:21:38.321Z,87.68
2022-10-22T19:24:06.955Z,88.08
2022-10-22T19:26:35.318Z,88.02
2022-10-22T19:29:04.869Z,87.70
2022-10-22T19:31:32.903Z,88.21
2022-10-22T19:34:02.197Z,88.06
2022-10-22T19:36:34.334Z,88.14
2022-10-22T19:39:03.525Z,87.83
2022-10-22T19:41:32.524Z,87.74
2022-10-22T19:44:01.557Z,88.01
2022-10-22T19:46:32.406Z,88.06
2022-10-22T19:49:00.535Z,88.06
2022-10-22T19:51:30.805Z,87.86
2022-10-22T19:54:01.088Z,87.83
2022-10-22T19:56:29.684Z,88.21
2022-10-22T19:58:57.731Z,87.85
2022-10-22T20:01:26.115Z,87.92
2022-10-22T20:03:54.654Z,87.88
2022-10-22T20:06:22.876Z,88.20
2022-10-22T20:08:53.897Z,87.83
2022-10-22T20:11:27.384Z,88.17
2022-10-22T20:13:56.524Z,87.90
2022-10-22T20:16:28.662Z,87.78
2022-10-22T20:19:00.785Z,87.90
2022-10-22T20:21:28.984Z,87.78
2022-10-22T20:23:57.474Z,87.65
2022-10-22T20:26:28.844Z,88.18
2022-10-22T20:28:57.431Z,88.16
2022-10-22T20:31:27.069Z,87.96
2022-10-22T20:33:57.377Z,88.12
2022-10-22T20:36:27.178Z,88.16
2022-10-22T20:39:00.792Z,87.93
2022-10-22T20:41:30.880Z,88.08
2022-10-22T20:43:58.814Z,88.26
2022-10-22T20:46:29.590Z,87.72
2022-10-22T20:49:02.211Z,88.14
2022-10-22T20:51:29.858Z,88.18
2022-10-22T20:53:57.743Z,88.05
2022-10-22T20:56:25.951Z,88.29
2022-10-22T20:59:04.231Z,87.76
2022-10-22T21:01:34.047Z,88.11
2022-10-22T21:04:01.787Z,88.32
2022-10-22T21:06:30.272Z,88.31
2022-10-22T21:08:58.154Z,88.37
2022-10-22T21:11:26.095Z,88.14
2022-10-22T21:13:55.245Z,88.18
2022-10-22T21:16:23.037Z,87.78
2022-10-22T21:18:50.826Z,88.01
2022-10-22T21:21:19.941Z,88.08
2022-10-22T21:23:50.104Z,88.14
2022-10-22T21:26:18.196Z,88.21
2022-10-22T21:28:46.149Z,87.89
2022-10-22T21:31:21.597Z,88.01
2022-10-22T21:33:50.444Z,87.86
2022-10-22T21:36:22.751Z,88.47
2022-10-22T21:38:52.077Z,88.03
2022-10-22T21:41:21.933Z,88.10
2022-10-22T21:43:49.889Z,87.90
2022-10-22T21:46:21.198Z,88.00
2022-10-22T21:48:53.845Z,87.97
2022-10-22T21:51:22.127Z,88.35
2022-10-22T21:56:24.996Z,88.00
2022-10-22T21:58:53.231Z,88.01
2022-10-22T22:01:23.258Z,88.29
2022-10-22T22:06:35.928Z,87.75
2022-10-22T22:09:05.521Z,88.44
2022-10-22T22:11:33.632Z,88.42
2022-10-22T22:14:01.464Z,88.08
2022-10-22T22:16:31.707Z,87.98
2022-10-22T22:19:01.713Z,88.20
2022-10-22T22:21:30.156Z,88.32
2022-10-22T22:23:59.871Z,88.24
2022-10-22T22:26:30.220Z,88.21
2022-10-22T22:28:59.592Z,88.39
2022-10-22T22:31:29.392Z,88.06
2022-10-22T22:34:01.155Z,88.25
2022-10-22T22:36:33.020Z,88.35
2022-10-22T22:39:02.203Z,88.37
2022-10-22T22:41:29.980Z,88.58
2022-10-22T22:43:57.890Z,88.33
2022-10-22T22:46:25.758Z,88.33
2022-10-22T22:48:53.783Z,88.59
2022-10-22T22:51:22.008Z,88.27
2022-10-22T22:53:49.948Z,88.81
2022-10-22T22:56:21.645Z,88.58
2022-10-22T22:58:50.385Z,88.15
2022-10-22T23:01:19.973Z,88.14
2022-10-22T23:03:50.091Z,88.24
2022-10-22T23:06:17.945Z,88.19
2022-10-22T23:08:45.984Z,88.57
2022-10-22T23:11:15.330Z,88.58
2022-10-22T23:13:45.102Z,88.23
2022-10-22T23:16:16.475Z,88.27
2022-10-22T23:18:45.160Z,88.22
2022-10-22T23:21:15.667Z,88.63
2022-10-22T23:23:45.620Z,88.20
2022-10-22T23:26:14.972Z,88.56
2022-10-22T23:28:44.141Z,88.68
2022-10-22T23:31:13.362Z,88.57
2022-10-22T23:33:41.386Z,88.25
2022-10-22T23:36:09.601Z,88.19
2022-10-22T23:38:39.108Z,88.75
2022-10-22T23:41:07.726Z,88.22
2022-10-22T23:43:37.633Z,88.76
2022-10-22T23:46:08.858Z,88.30
2022-10-22T23:48:37.160Z,88.71
2022-10-22T23:51:05.832Z,88.60
2022-10-22T23:53:33.699Z,88.77
2022-10-22T23:56:05.683Z,88.28
2022-10-22T23:58:34.469Z,88.55
